createdAt,value
2023-01-01T00:01:46.574Z,145.23
2023-01-01T00:04:15.830Z,144.27
2023-01-01T00:06:46.539Z,159.40
2023-01-01T00:09:32.196Z,167.48
2023-01-01T00:11:59.294Z,178.02
2023-01-01T00:14:26.945Z,189.60
2023-01-01T00:16:56.093Z,175.32
2023-01-01T00:19:23.489Z,183.90
2023-01-01T00:21:50.614Z,192.85
2023-01-01T00:24:17.676Z,182.48
2023-01-01T00:26:44.771Z,182.40
2023-01-01T00:29:13.566Z,148.13
2023-01-01T00:31:40.715Z,179.30
2023-01-01T00:34:10.287Z,181.52
2023-01-01T00:36:37.539Z,193.70
2023-01-01T00:39:05.112Z,181.05
2023-01-01T00:41:32.212Z,214.25
2023-01-01T00:43:59.475Z,185.65
2023-01-01T00:46:26.720Z,157.43
2023-01-01T00:48:53.832Z,276.23
2023-01-01T00:51:20.850Z,162.98
2023-01-01T00:53:47.895Z,182.77
2023-01-01T00:56:14.985Z,135.27
2023-01-01T00:58:42.051Z,131.70
2023-01-01T01:01:09.194Z,134.68
2023-01-01T01:03:38.911Z,123.78
2023-01-01T01:06:05.862Z,131.82
2023-01-01T01:08:34.499Z,135.07
2023-01-01T01:11:12.642Z,174.38
2023-01-01T01:13:40.747Z,212.23
2023-01-01T01:16:27.554Z,180.50
2023-01-01T01:18:57.776Z,178.35
2023-01-01T01:21:25.291Z,176.48
2023-01-01T01:23:54.377Z,113.63
2023-01-01T01:26:23.346Z,98.75
2023-01-01T01:28:51.322Z,110.00
2023-01-01T01:31:20.482Z,122.10
2023-01-01T01:33:49.003Z,109.30
2023-01-01T01:36:17.593Z,102.53
2023-01-01T01:38:45.068Z,107.18
2023-01-01T01:41:27.208Z,110.38
2023-01-01T01:44:07.490Z,115.00
2023-01-01T01:46:45.695Z,114.18
2023-01-01T01:49:20.711Z,108.78
2023-01-01T01:51:48.665Z,111.00
2023-01-01T01:54:19.824Z,111.93
2023-01-01T01:56:52.335Z,137.15
2023-01-01T01:59:21.163Z,128.90
2023-01-01T02:01:48.238Z,118.85
2023-01-01T02:04:17.053Z,126.88
2023-01-01T02:06:45.397Z,116.35
2023-01-01T02:09:13.292Z,113.32
2023-01-01T02:11:40.299Z,145.05
2023-01-01T02:14:07.655Z,123.97
2023-01-01T02:16:47.489Z,113.97
2023-01-01T02:19:37.059Z,106.03
2023-01-01T02:22:15.965Z,82.45
2023-01-01T02:25:16.993Z,81.88
2023-01-01T02:27:52.114Z,50.47
2023-01-01T02:30:20.075Z,36.90
2023-01-01T02:33:01.217Z,64.88
2023-01-01T02:35:38.938Z,47.35
2023-01-01T02:38:10.538Z,74.00
2023-01-01T02:40:44.263Z,56.45
2023-01-01T02:43:11.303Z,54.05
2023-01-01T02:45:38.389Z,43.08
2023-01-01T02:48:39.647Z,49.17
2023-01-01T02:51:25.328Z,66.38
2023-01-01T02:54:01.248Z,73.10
2023-01-01T02:56:39.152Z,61.80
2023-01-01T02:59:43.611Z,58.75
2023-01-01T03:02:13.537Z,57.58
2023-01-01T03:04:52.749Z,54.80
2023-01-01T03:07:22.631Z,53.22
2023-01-01T03:09:58.503Z,58.72
2023-01-01T03:12:39.962Z,50.88
2023-01-01T03:15:13.279Z,45.03
2023-01-01T03:18:03.288Z,54.30
2023-01-01T03:20:34.596Z,54.75
2023-01-01T03:23:07.255Z,60.22
2023-01-01T03:25:42.946Z,65.45
2023-01-01T03:28:24.112Z,56.85
2023-01-01T03:30:54.171Z,65.88
2023-01-01T03:33:42.039Z,54.63
2023-01-01T03:36:27.274Z,46.28
2023-01-01T03:39:18.544Z,45.42
2023-01-01T03:42:08.699Z,50.20
2023-01-01T03:45:14.089Z,37.63
2023-01-01T03:47:41.112Z,37.13
2023-01-01T03:50:08.762Z,43.30
2023-01-01T03:53:14.021Z,44.67
2023-01-01T03:55:49.806Z,42.60
2023-01-01T03:58:35.599Z,34.05
2023-01-01T04:01:14.703Z,36.53
2023-01-01T04:03:43.224Z,37.25
2023-01-01T04:06:11.848Z,36.88
2023-01-01T04:08:39.468Z,36.28
2023-01-01T04:11:40.063Z,36.53
2023-01-01T04:14:07.287Z,39.00
2023-01-01T04:16:34.402Z,38.92
2023-01-01T04:19:01.503Z,37.50
2023-01-01T04:21:28.550Z,37.95
2023-01-01T04:23:55.573Z,38.38
2023-01-01T04:26:22.663Z,37.50
2023-01-01T04:28:49.627Z,36.50
2023-01-01T04:31:16.684Z,36.78
2023-01-01T04:33:43.768Z,37.33
2023-01-01T04:36:11.301Z,40.90
2023-01-01T04:38:38.753Z,38.08
2023-01-01T04:41:06.042Z,35.15
2023-01-01T04:43:33.131Z,36.45
2023-01-01T04:46:04.897Z,35.92
2023-01-01T04:48:32.383Z,29.75
2023-01-01T04:51:06.750Z,31.92
2023-01-01T04:53:35.425Z,30.30
2023-01-01T04:56:08.310Z,31.30
2023-01-01T04:58:36.949Z,27.65
2023-01-01T05:01:05.245Z,28.83
2023-01-01T05:03:32.838Z,34.30
2023-01-01T05:06:09.535Z,38.05
2023-01-01T05:08:38.858Z,38.20
2023-01-01T05:11:11.750Z,31.75
2023-01-01T05:13:41.216Z,34.85
2023-01-01T05:16:11.210Z,34.75
2023-01-01T05:18:39.113Z,32.22
2023-01-01T05:21:12.601Z,38.22
2023-01-01T05:23:40.114Z,35.17
2023-01-01T05:26:12.385Z,30.45
2023-01-01T05:28:40.121Z,26.07
2023-01-01T05:31:13.885Z,18.42
2023-01-01T05:33:41.759Z,29.73
2023-01-01T05:36:11.032Z,28.25
2023-01-01T05:38:38.005Z,27.23
2023-01-01T05:41:08.297Z,27.42
2023-01-01T05:43:36.006Z,28.88
2023-01-01T05:46:10.255Z,22.55
2023-01-01T05:48:37.599Z,18.98
2023-01-01T05:51:05.918Z,21.45
2023-01-01T05:53:33.840Z,21.00
2023-01-01T05:56:01.630Z,22.85
2023-01-01T05:58:30.876Z,19.85
2023-01-01T06:00:58.483Z,19.63
2023-01-01T06:03:25.507Z,22.75
2023-01-01T06:05:52.439Z,17.92
2023-01-01T06:08:19.387Z,18.38
2023-01-01T06:10:46.387Z,17.85
2023-01-01T06:13:13.697Z,17.88
2023-01-01T06:15:40.855Z,21.15
2023-01-01T06:18:08.242Z,22.65
2023-01-01T06:20:35.308Z,24.27
2023-01-01T06:23:02.283Z,26.67
2023-01-01T06:25:29.273Z,19.77
2023-01-01T06:27:56.197Z,18.88
2023-01-01T06:30:23.222Z,23.33
2023-01-01T06:32:50.194Z,17.08
2023-01-01T06:35:17.114Z,20.10
2023-01-01T06:37:44.078Z,17.02
2023-01-01T06:40:11.391Z,15.57
2023-01-01T06:42:38.422Z,14.32
2023-01-01T06:45:05.871Z,14.80
2023-01-01T06:47:35.833Z,14.73
2023-01-01T06:50:06.840Z,15.38
2023-01-01T06:52:33.980Z,14.25
2023-01-01T06:55:00.972Z,17.00
2023-01-01T06:57:27.926Z,15.55
2023-01-01T06:59:55.065Z,14.82
2023-01-01T07:02:22.255Z,13.07
2023-01-01T07:04:49.992Z,14.40
2023-01-01T07:07:16.959Z,14.25
2023-01-01T07:09:43.948Z,14.10
2023-01-01T07:12:11.060Z,17.40
2023-01-01T07:14:38.413Z,16.17
2023-01-01T07:17:05.440Z,19.55
2023-01-01T07:19:32.429Z,17.92
2023-01-01T07:21:59.483Z,20.20
2023-01-01T07:24:26.579Z,26.38
2023-01-01T07:26:53.586Z,28.05
2023-01-01T07:29:20.617Z,36.60
2023-01-01T07:31:47.608Z,34.05
2023-01-01T07:34:17.336Z,26.48
2023-01-01T07:36:44.321Z,26.65
2023-01-01T07:39:11.353Z,27.05
2023-01-01T07:41:38.593Z,24.00
2023-01-01T07:44:05.847Z,28.17
2023-01-01T07:46:36.136Z,21.67
2023-01-01T07:49:03.950Z,25.50
2023-01-01T07:51:31.051Z,27.38
2023-01-01T07:54:03.935Z,25.40
2023-01-01T07:56:35.077Z,20.88
2023-01-01T07:59:02.150Z,20.55
2023-01-01T08:01:29.241Z,25.63
2023-01-01T08:03:56.345Z,24.73
2023-01-01T08:06:23.404Z,23.48
2023-01-01T08:08:50.414Z,21.45
2023-01-01T08:11:17.502Z,20.65
2023-01-01T08:13:44.489Z,25.95
2023-01-01T08:16:11.633Z,23.42
2023-01-01T08:18:38.833Z,25.83
2023-01-01T08:21:06.479Z,26.70
2023-01-01T08:23:33.610Z,47.67
2023-01-01T08:26:02.662Z,47.80
2023-01-01T08:28:30.472Z,40.95
2023-01-01T08:30:57.877Z,27.98
2023-01-01T08:33:26.265Z,28.75
2023-01-01T08:35:54.634Z,28.60
2023-01-01T08:38:22.135Z,26.30
2023-01-01T08:40:49.350Z,29.25
2023-01-01T08:43:16.453Z,34.03
2023-01-01T08:45:44.155Z,33.47
2023-01-01T08:48:11.411Z,34.67
2023-01-01T08:50:38.403Z,33.25
2023-01-01T08:53:05.650Z,24.73
2023-01-01T08:55:32.814Z,20.67
2023-01-01T08:58:00.020Z,20.45
2023-01-01T09:00:27.039Z,16.90
2023-01-01T09:02:54.700Z,14.50
2023-01-01T09:05:21.740Z,17.33
2023-01-01T09:07:48.775Z,14.15
2023-01-01T09:10:15.834Z,13.00
2023-01-01T09:12:42.830Z,16.25
2023-01-01T09:15:17.338Z,21.52
2023-01-01T09:17:44.355Z,18.05
2023-01-01T09:20:11.500Z,15.02
2023-01-01T09:22:38.657Z,17.15
2023-01-01T09:25:06.107Z,17.23
2023-01-01T09:27:33.218Z,13.23
2023-01-01T09:30:00.563Z,10.88
2023-01-01T09:32:27.622Z,10.85
2023-01-01T09:34:54.675Z,11.40
2023-01-01T09:37:21.958Z,12.25
2023-01-01T09:39:48.901Z,17.15
2023-01-01T09:42:34.460Z,21.15
2023-01-01T09:45:25.347Z,20.60
2023-01-01T09:48:06.790Z,19.55
2023-01-01T09:50:42.745Z,19.65
2023-01-01T09:53:28.037Z,21.35
2023-01-01T09:56:03.280Z,21.45
2023-01-01T09:58:36.161Z,15.18
2023-01-01T10:03:52.192Z,16.08
2023-01-01T10:06:29.676Z,15.07
2023-01-01T10:09:04.693Z,18.88
2023-01-01T10:11:55.033Z,16.98
2023-01-01T10:14:59.623Z,15.30
2023-01-01T10:17:36.642Z,14.45
2023-01-01T10:20:19.731Z,16.45
2023-01-01T10:25:22.315Z,16.92
2023-01-01T10:28:00.019Z,20.73
2023-01-01T10:30:28.858Z,21.50
2023-01-01T10:32:57.186Z,21.25
2023-01-01T10:35:31.495Z,19.00
2023-01-01T10:38:03.512Z,17.45
2023-01-01T10:40:31.414Z,22.90
2023-01-01T10:43:03.938Z,21.23
2023-01-01T10:45:38.069Z,21.45
2023-01-01T10:48:14.039Z,13.73
2023-01-01T10:50:48.442Z,12.07
2023-01-01T10:53:29.237Z,13.57
2023-01-01T10:56:02.436Z,16.45
2023-01-01T10:58:38.766Z,17.75
2023-01-01T11:01:08.916Z,14.98
2023-01-01T11:03:36.310Z,9.95
2023-01-01T11:06:10.937Z,10.65
2023-01-01T11:08:41.006Z,11.23
2023-01-01T11:11:19.655Z,12.63
2023-01-01T11:13:50.768Z,13.55
2023-01-01T11:16:17.949Z,10.10
2023-01-01T11:18:45.371Z,10.35
2023-01-01T11:21:21.076Z,8.93
2023-01-01T11:23:50.098Z,7.93
2023-01-01T11:26:27.351Z,13.20
2023-01-01T11:29:16.682Z,13.77
2023-01-01T11:31:46.763Z,10.57
2023-01-01T11:34:31.123Z,11.93
2023-01-01T11:37:28.745Z,10.10
2023-01-01T11:39:58.568Z,7.53
2023-01-01T11:42:28.539Z,6.15
2023-01-01T11:45:13.807Z,6.88
2023-01-01T11:47:42.513Z,8.25
2023-01-01T11:50:21.869Z,4.93
2023-01-01T11:52:51.460Z,5.57
2023-01-01T11:55:48.006Z,3.92
2023-01-01T11:58:25.219Z,4.75
2023-01-01T12:00:56.503Z,6.18
2023-01-01T12:03:39.138Z,4.55
2023-01-01T12:06:23.797Z,5.60
2023-01-01T12:08:59.992Z,5.55
2023-01-01T12:11:45.150Z,7.13
2023-01-01T12:14:34.055Z,5.97
2023-01-01T12:17:12.994Z,5.97
2023-01-01T12:20:13.054Z,7.63
2023-01-01T12:22:41.618Z,8.18
2023-01-01T12:25:15.071Z,6.28
2023-01-01T12:28:04.095Z,9.50
2023-01-01T12:30:44.952Z,6.80
2023-01-01T12:33:17.828Z,5.45
2023-01-01T12:36:18.473Z,5.70
2023-01-01T12:39:07.072Z,5.07
2023-01-01T12:42:05.086Z,5.82
2023-01-01T12:44:35.010Z,4.38
2023-01-01T12:47:20.650Z,4.10
2023-01-01T12:50:26.301Z,8.52
2023-01-01T12:53:12.243Z,6.68
2023-01-01T12:56:00.121Z,7.05
2023-01-01T12:58:31.996Z,7.00
2023-01-01T13:01:04.660Z,5.60
2023-01-01T13:06:02.677Z,6.03
2023-01-01T13:08:30.285Z,7.70
2023-01-01T13:10:59.513Z,7.40
2023-01-01T13:13:27.008Z,7.30
2023-01-01T13:15:57.713Z,6.25
2023-01-01T13:18:32.648Z,7.57
2023-01-01T13:21:17.050Z,5.72
2023-01-01T13:23:45.912Z,4.97
2023-01-01T13:26:21.809Z,5.00
2023-01-01T13:28:57.804Z,5.85
2023-01-01T13:31:42.825Z,6.95
2023-01-01T13:34:35.565Z,5.93
2023-01-01T13:37:13.871Z,6.63
2023-01-01T13:40:00.559Z,5.63
2023-01-01T13:42:52.804Z,5.50
2023-01-01T13:48:49.486Z,6.65
2023-01-01T13:52:04.739Z,7.18
2023-01-01T13:55:07.236Z,8.25
2023-01-01T13:58:06.411Z,17.50
2023-01-01T14:00:54.337Z,15.80
2023-01-01T14:03:22.514Z,10.23
2023-01-01T14:05:57.006Z,12.27
2023-01-01T14:08:36.270Z,10.65
2023-01-01T14:11:18.420Z,15.48
2023-01-01T14:13:45.570Z,15.23
2023-01-01T14:16:16.550Z,31.50
2023-01-01T14:18:49.603Z,38.10
2023-01-01T14:21:19.360Z,31.45
2023-01-01T14:23:51.258Z,29.20
2023-01-01T14:26:21.582Z,28.17
2023-01-01T14:28:48.725Z,27.10
2023-01-01T14:31:29.475Z,22.67
2023-01-01T14:33:56.908Z,21.73
2023-01-01T14:36:29.785Z,21.73
2023-01-01T14:39:00.900Z,25.77
2023-01-01T14:41:29.455Z,20.75
2023-01-01T14:44:14.340Z,27.23
2023-01-01T14:46:52.431Z,27.33
2023-01-01T14:49:24.909Z,31.40
2023-01-01T14:51:57.768Z,27.33
2023-01-01T14:54:36.621Z,23.17
2023-01-01T14:57:09.321Z,29.65
2023-01-01T14:59:40.991Z,31.48
2023-01-01T15:02:21.781Z,35.88
2023-01-01T15:04:49.803Z,31.58
2023-01-01T15:07:29.237Z,30.83
2023-01-01T15:10:00.495Z,30.08
2023-01-01T15:12:28.071Z,36.72
2023-01-01T15:14:56.544Z,44.85
2023-01-01T15:17:25.731Z,50.85
2023-01-01T15:20:22.066Z,49.28
2023-01-01T15:22:50.853Z,38.85
2023-01-01T15:25:19.738Z,38.58
2023-01-01T15:27:52.194Z,39.47
2023-01-01T15:30:29.468Z,42.83
2023-01-01T15:33:05.470Z,39.58
2023-01-01T15:35:34.015Z,39.85
2023-01-01T15:38:35.427Z,47.00
2023-01-01T15:41:26.610Z,52.63
2023-01-01T15:44:07.775Z,58.95
2023-01-01T15:46:34.906Z,64.60
2023-01-01T15:49:02.009Z,71.88
2023-01-01T15:51:29.958Z,64.10
2023-01-01T15:54:03.118Z,57.55
2023-01-01T15:56:32.701Z,37.10
2023-01-01T15:59:26.080Z,35.58
2023-01-01T16:04:29.916Z,29.48
2023-01-01T16:06:58.457Z,27.45
2023-01-01T16:09:25.672Z,31.23
2023-01-01T16:11:55.308Z,32.38
2023-01-01T16:14:22.908Z,33.28
2023-01-01T16:16:55.209Z,47.58
2023-01-01T16:19:23.231Z,43.53
2023-01-01T16:21:50.267Z,52.80
2023-01-01T16:24:18.969Z,55.00
2023-01-01T16:26:46.809Z,44.90
2023-01-01T16:29:14.104Z,53.20
2023-01-01T16:31:42.468Z,44.03
2023-01-01T16:34:14.947Z,47.33
2023-01-01T16:36:45.510Z,42.35
2023-01-01T16:39:12.974Z,39.60
2023-01-01T16:41:41.943Z,39.05
2023-01-01T16:44:12.511Z,30.38
2023-01-01T16:46:39.583Z,33.00
2023-01-01T16:49:06.688Z,34.08
2023-01-01T16:51:40.595Z,36.30
2023-01-01T16:54:10.516Z,33.45
2023-01-01T16:56:37.900Z,36.80
2023-01-01T16:59:04.911Z,37.67
2023-01-01T17:01:32.336Z,37.05
2023-01-01T17:04:00.613Z,34.47
2023-01-01T17:06:27.841Z,42.85
2023-01-01T17:08:55.015Z,41.60
2023-01-01T17:11:24.965Z,49.08
2023-01-01T17:13:52.114Z,50.95
2023-01-01T17:16:26.054Z,47.83
2023-01-01T17:19:14.878Z,40.05
2023-01-01T17:21:42.723Z,45.63
2023-01-01T17:24:09.772Z,49.47
2023-01-01T17:26:36.936Z,44.00
2023-01-01T17:29:05.186Z,41.22
2023-01-01T17:31:32.394Z,38.20
2023-01-01T17:33:59.771Z,39.35
2023-01-01T17:36:29.630Z,50.80
2023-01-01T17:38:57.360Z,45.28
2023-01-01T17:41:24.614Z,53.67
2023-01-01T17:43:52.348Z,51.72
2023-01-01T17:46:25.952Z,61.58
2023-01-01T17:48:54.019Z,55.10
2023-01-01T17:51:21.829Z,57.15
2023-01-01T17:53:49.713Z,74.53
2023-01-01T17:56:18.874Z,66.75
2023-01-01T17:58:47.103Z,53.30
2023-01-01T18:01:34.928Z,50.90
2023-01-01T18:04:07.294Z,51.58
2023-01-01T18:06:41.375Z,41.08
2023-01-01T18:09:13.063Z,40.67
2023-01-01T18:11:41.089Z,42.40
2023-01-01T18:14:08.164Z,36.95
2023-01-01T18:16:37.604Z,45.70
2023-01-01T18:19:05.826Z,35.92
2023-01-01T18:21:34.449Z,34.95
2023-01-01T18:24:02.410Z,34.95
2023-01-01T18:26:31.365Z,37.33
2023-01-01T18:29:01.011Z,39.45
2023-01-01T18:31:33.252Z,42.22
2023-01-01T18:34:04.904Z,43.85
2023-01-01T18:36:34.233Z,45.40
2023-01-01T18:39:14.764Z,49.13
2023-01-01T18:42:17.409Z,38.42
2023-01-01T18:44:44.757Z,33.30
2023-01-01T18:47:20.025Z,35.83
2023-01-01T18:49:50.425Z,32.10
2023-01-01T18:52:24.966Z,33.00
2023-01-01T18:54:57.992Z,31.75
2023-01-01T19:00:00.417Z,27.35
2023-01-01T19:02:41.335Z,28.08
2023-01-01T19:05:24.626Z,27.88
2023-01-01T19:10:23.424Z,26.48
2023-01-01T19:12:54.948Z,32.47
2023-01-01T19:15:22.557Z,30.23
2023-01-01T19:17:50.015Z,32.58
2023-01-01T19:20:23.663Z,35.78
2023-01-01T19:22:50.786Z,33.20
2023-01-01T19:25:50.904Z,37.15
2023-01-01T19:28:17.886Z,38.50
2023-01-01T19:30:46.118Z,31.25
2023-01-01T19:33:13.884Z,51.50
2023-01-01T19:35:41.148Z,48.85
2023-01-01T19:38:08.264Z,42.60
2023-01-01T19:40:35.280Z,38.00
2023-01-01T19:43:03.783Z,38.78
2023-01-01T19:45:31.794Z,32.92
2023-01-01T19:47:58.775Z,33.97
2023-01-01T19:50:25.911Z,26.45
2023-01-01T19:52:52.901Z,32.05
2023-01-01T19:55:19.841Z,30.45
2023-01-01T19:57:46.883Z,29.08
2023-01-01T20:00:14.512Z,33.38
2023-01-01T20:02:46.575Z,34.13
2023-01-01T20:07:41.693Z,35.03
2023-01-01T20:10:09.081Z,34.60
2023-01-01T20:12:36.137Z,39.60
2023-01-01T20:15:03.398Z,40.83
2023-01-01T20:17:30.917Z,43.92
2023-01-01T20:19:58.589Z,44.85
2023-01-01T20:22:25.767Z,48.97
2023-01-01T20:24:53.023Z,50.95
2023-01-01T20:27:24.597Z,50.10
2023-01-01T20:29:51.780Z,59.13
2023-01-01T20:32:20.274Z,59.20
2023-01-01T20:34:47.599Z,56.03
2023-01-01T20:37:33.180Z,61.60
2023-01-01T20:40:00.199Z,40.67
2023-01-01T20:42:28.251Z,35.80
2023-01-01T20:44:55.741Z,31.52
2023-01-01T20:47:22.732Z,28.35
2023-01-01T20:49:49.803Z,30.30
2023-01-01T20:52:16.998Z,26.50
2023-01-01T20:54:44.002Z,28.13
2023-01-01T20:57:11.109Z,32.38
2023-01-01T20:59:38.632Z,32.80
2023-01-01T21:02:09.330Z,48.05
2023-01-01T21:04:39.252Z,44.78
2023-01-01T21:07:12.188Z,44.00
2023-01-01T21:09:40.256Z,44.97
2023-01-01T21:12:08.380Z,36.45
2023-01-01T21:14:35.862Z,36.50
2023-01-01T21:17:22.269Z,26.20
2023-01-01T21:19:55.722Z,25.25
2023-01-01T21:22:23.087Z,25.88
2023-01-01T21:24:54.318Z,30.30
2023-01-01T21:27:33.854Z,23.52
2023-01-01T21:30:01.378Z,24.27
2023-01-01T21:32:41.350Z,29.40
2023-01-01T21:35:20.076Z,23.13
2023-01-01T21:37:52.997Z,20.08
2023-01-01T21:40:22.921Z,21.83
2023-01-01T21:42:52.626Z,22.10
2023-01-01T21:45:34.864Z,19.63
2023-01-01T21:48:12.341Z,19.30
2023-01-01T21:50:44.360Z,22.02
2023-01-01T21:53:19.014Z,24.02
2023-01-01T21:55:52.442Z,25.23
2023-01-01T21:58:44.038Z,27.65
2023-01-01T22:01:22.136Z,28.27
2023-01-01T22:04:23.402Z,32.78
2023-01-01T22:06:54.002Z,43.67
2023-01-01T22:09:49.086Z,40.00
2023-01-01T22:12:18.261Z,41.78
2023-01-01T22:14:47.162Z,41.17
2023-01-01T22:17:33.401Z,44.55
2023-01-01T22:20:18.745Z,40.70
2023-01-01T22:22:45.751Z,49.83
2023-01-01T22:25:27.164Z,50.22
2023-01-01T22:27:55.267Z,42.25
2023-01-01T22:30:42.736Z,52.42
2023-01-01T22:33:18.072Z,61.40
2023-01-01T22:35:45.829Z,65.53
2023-01-01T22:38:19.791Z,64.07
2023-01-01T22:40:50.092Z,58.72
2023-01-01T22:43:30.665Z,46.65
2023-01-01T22:45:58.731Z,39.53
2023-01-01T22:48:25.767Z,37.38
2023-01-01T22:50:56.459Z,47.17
2023-01-01T22:53:23.456Z,45.10
2023-01-01T22:55:50.457Z,48.63
2023-01-01T22:58:17.501Z,56.42
2023-01-01T23:00:44.574Z,38.45
2023-01-01T23:03:11.640Z,42.10
2023-01-01T23:05:38.818Z,56.00
2023-01-01T23:08:06.186Z,67.32
2023-01-01T23:10:33.340Z,59.25
2023-01-01T23:13:22.966Z,52.67
2023-01-01T23:16:02.580Z,61.47
2023-01-01T23:18:35.369Z,54.53
2023-01-01T23:21:06.903Z,49.35
2023-01-01T23:23:34.131Z,51.13
2023-01-01T23:26:02.854Z,57.17
2023-01-01T23:28:31.608Z,43.72
2023-01-01T23:31:01.751Z,46.10
2023-01-01T23:33:30.171Z,35.60
2023-01-01T23:35:57.402Z,37.33
2023-01-01T23:38:25.374Z,33.60
2023-01-01T23:40:52.368Z,38.25
2023-01-01T23:43:19.423Z,38.45
2023-01-01T23:45:47.371Z,29.15
2023-01-01T23:48:15.782Z,28.60
2023-01-01T23:50:43.182Z,34.88
2023-01-01T23:53:10.206Z,32.95
2023-01-01T23:55:37.208Z,31.90
2023-01-01T23:58:04.272Z,30.98
